Terminal Aerodrome Forecast
Issued by NWS Brownsville, TX

Home | Current Version | Previous Version | Text Only | Print | Product List | Glossary On
Versions: 1 2 3 4 5 6 7 8 9 10 11 12 13 14
000
FTUS44 KBRO 280527
TAFBRO
TAF
KBRO 280527Z 2806/2906 14010KT P6SM FEW020
     FM281200 15007KT 6SM HZ SCT012 BKN015
     FM281500 15018G25KT P6SM FEW030 SCT250
     FM290200 15012KT P6SM SCT020=

USA.gov is the U.S. government's official web portal to all federal, state and local government web resources and services.